Latest Weather Observations for Kingaroy

IDQ60901

Issued at 10:21 am EST Tuesday 31 March 2015 (issued every 10 minutes, with the page automatically refreshed every 10 minutes)

About weather observations | Map of Brisbane area stations | Latest observations for Brisbane area | Other Formats
Station Details ID: 040922 Name: KINGAROY AIRPORT Lat: -26.57 Lon: 151.84 Height: 433.67 m
Data from the previous 72 hours. | See also: Recent months at Kingaroy
Date/Time
EST
Tmp

°C
App
Tmp
°C
Dew
Point
°C
Rel
Hum
%
Delta-T

°C
Wind Press
QNH
hPa
Press
MSL
hPa
Rain
since
9 am
mm
Dir
 
Spd
km/h
Gust
km/h
Spd
kts
Gust
kts
31/10:00am 23.0 22.5 16.8 68 3.9 E 15 30 8 16 1024.3 1022.3 0.0
31/09:30am 21.7 21.6 16.9 74 3.0 ESE 13 19 7 10 1024.3 1022.3 0.0
31/09:00am 20.3 20.1 16.7 80 2.2 SE 13 19 7 10 1024.5 1022.5 0.2
31/08:30am 19.4 19.4 16.2 82 2.0 SE 11 17 6 9 1024.0 1021.9 0.2
31/08:00am 19.0 19.3 17.0 88 1.2 ESE 11 17 6 9 1023.4 1021.4 0.2
31/07:30am 18.3 18.9 16.8 91 0.9 ENE 9 13 5 7 1023.3 1021.3 0.2
31/07:00am 17.6 18.1 16.5 93 0.7 SSW 9 11 5 6 1023.1 1021.1 0.0
31/06:30am 17.3 17.2 16.0 92 0.8 SSW 11 13 6 7 1022.8 1020.8 0.0
31/06:00am 17.1 17.6 15.6 91 0.9 SSE 7 9 4 5 1022.5 1020.5 0.0
31/05:30am 17.3 18.0 15.6 90 1.0 SE 6 9 3 5 1022.6 1020.6 0.0
31/05:00am 17.3 17.8 15.5 89 1.1 ESE 7 9 4 5 1022.2 1020.1 0.0
31/04:30am 17.7 18.3 15.7 88 1.2 SE 7 9 4 5 1022.3 1020.3 0.0
31/04:00am 17.7 18.3 15.7 88 1.2 ESE 7 11 4 6 1022.0 1019.9 0.0
31/03:30am 17.6 18.3 15.6 88 1.2 ESE 6 9 3 5 1022.2 1020.1 0.0
31/03:00am 17.4 19.2 15.6 89 1.1 CALM 0 2 0 1 1022.3 1020.3 0.0
31/02:30am 17.4 17.6 15.7 90 1.0 SSW 9 11 5 6 1022.8 1020.8 0.0
31/02:00am 17.4 17.9 15.6 89 1.1 S 7 9 4 5 1022.8 1020.8 0.0
31/01:30am 17.7 17.5 15.7 88 1.2 SSW 11 13 6 7 1023.1 1021.1 0.0
31/01:00am 17.8 18.3 15.6 87 1.3 ESE 7 9 4 5 1023.4 1021.4 0.0
31/12:30am 17.8 18.2 15.4 86 1.4 SE 7 9 4 5 1023.9 1021.8 0.0
 
Date/Time
EST
Tmp

°C
App
Tmp
°C
Dew
Point
°C
Rel
Hum
%
Delta-T

°C
Wind Press
QNH
hPa
Press
MSL
hPa
Rain
since
9 am
mm
Dir
 
Spd
km/h
Gust
km/h
Spd
kts
Gust
kts
30/11:30pm 17.5 18.1 15.3 87 1.3 SSE 6 7 3 4 1024.1 1022.0 0.0
30/11:00pm 17.7 19.4 15.3 86 1.4 CALM 0 0 0 0 1024.1 1022.0 0.0
30/10:30pm 17.6 18.0 14.7 83 1.7 ESE 6 9 3 5 1024.2 1022.1 0.0
30/10:00pm 18.2 18.7 14.9 81 1.9 ESE 6 7 3 4 1024.4 1022.4 0.0
30/09:30pm 19.2 19.2 15.1 77 2.5 E 9 15 5 8 1024.4 1022.4 0.0
30/09:00pm 19.6 19.3 15.5 77 2.5 E 11 15 6 8 1024.4 1022.4 0.0
30/08:30pm 19.4 19.4 15.3 77 2.5 E 9 11 5 6 1024.3 1022.3 0.0
30/08:00pm 20.2 19.9 15.4 74 2.9 E 11 15 6 8 1024.0 1021.9 0.0
30/07:30pm 19.7 19.6 14.9 74 2.9 E 9 11 5 6 1023.7 1021.6 0.0
30/07:00pm 21.1 20.3 15.0 68 3.7 E 13 17 7 9 1023.3 1021.3 0.0
30/06:30pm 21.6 22.2 15.9 70 3.5 E 7 9 4 5 1022.9 1020.9 0.0
30/06:00pm 22.2 22.3 15.5 66 4.1 ESE 9 13 5 7 1022.4 1020.4 0.0
30/05:30pm 23.6 23.0 15.6 61 4.9 ESE 13 19 7 10 1022.2 1020.1 0.0
30/05:00pm 24.4 23.8 15.6 58 5.4 SE 13 19 7 10 1022.0 1019.9 0.0
30/04:30pm 24.4 23.1 14.8 55 5.8 ESE 15 20 8 11 1021.6 1019.5 0.0
30/04:00pm 26.1 25.6 16.9 57 5.8 SSE 15 22 8 12 1021.5 1019.4 0.0
30/03:30pm 25.1 24.1 13.3 48 7.0 ESE 11 17 6 9 1021.3 1019.2 0.0
30/03:00pm 25.5 24.2 13.7 48 7.1 E 13 22 7 12 1020.8 1018.8 0.0
30/02:30pm 26.0 24.5 13.2 45 7.6 E 13 20 7 11 1021.3 1019.2 0.0
30/02:00pm 25.8 24.1 12.6 44 7.8 E 13 22 7 12 1021.6 1019.5 0.0
30/01:30pm 26.4 25.0 13.5 45 7.7 E 13 28 7 15 1021.8 1019.7 0.0
30/01:00pm 26.4 24.7 13.5 45 7.7 E 15 24 8 13 1022.3 1020.3 0.0
30/12:30pm 26.8 24.8 13.9 45 7.8 E 17 26 9 14 1022.6 1020.6 0.0
30/12:00pm 26.1 24.1 13.9 47 7.3 ESE 17 28 9 15 1023.2 1021.2 0.0
30/11:30am 25.8 24.2 14.0 48 7.1 NE 15 28 8 15 1023.9 1021.8 0.0
30/11:00am 25.1 23.9 15.1 53 6.1 ENE 15 30 8 16 1024.3 1022.3 0.0
30/10:30am 24.9 23.9 15.5 56 5.8 E 15 24 8 13 1024.9 1022.9 0.0
30/10:00am 23.0 21.6 15.6 63 4.5 ENE 17 26 9 14 1025.4 1023.4 0.0
30/09:30am 22.3 21.9 16.1 68 3.8 E 13 20 7 11 1025.8 1023.8 0.0
30/09:00am 22.2 21.8 16.2 69 3.7 E 13 20 7 11 1025.6 1023.6 0.0
30/08:30am 21.1 21.4 17.1 78 2.5 E 11 17 6 9 1025.3 1023.3 0.0
30/08:00am 19.2 19.5 17.0 87 1.4 S 11 13 6 7 1025.1 1023.1 0.0
30/07:30am 16.7 17.8 15.7 94 0.6 WNW 4 7 2 4 1024.5 1022.5 0.0
30/07:00am 15.9 17.6 15.3 96 0.4 CALM 0 0 0 0 1024.1 1022.0 0.0
30/06:30am 15.3 16.4 14.5 95 0.5 WSW 2 6 1 3 1024.1 1022.0 0.0
30/06:00am 15.0 15.6 14.2 95 0.5 NNE 4 7 2 4 1023.9 1021.8 0.0
30/05:30am 15.9 16.2 15.1 95 0.5 SSE 7 9 4 5 1023.4 1021.4 0.0
30/05:00am 15.1 14.8 14.5 96 0.3 SSW 9 11 5 6 1023.3 1021.3 0.0
30/04:30am 14.6 14.5 14.0 96 0.3 SSE 7 9 4 5 1022.7 1020.7 0.0
30/04:00am 14.4 14.1 13.4 94 0.6 S 7 9 4 5 1022.3 1020.3 0.0
30/03:30am 14.6 15.8 13.8 95 0.5 CALM 0 0 0 0 1022.5 1020.5 0.0
30/03:00am 14.5 15.6 13.4 93 0.6 CALM 0 0 0 0 1022.7 1020.7 0.0
30/02:30am 15.3 16.3 14.2 93 0.6 SSE 2 7 1 4 1022.9 1020.9 0.0
30/02:00am 15.4 16.4 14.3 93 0.6 ESE 2 6 1 3 1023.1 1021.1 0.0
30/01:30am 16.0 16.2 14.7 92 0.8 SSE 7 9 4 5 1023.4 1021.4 0.0
30/01:00am 15.7 15.8 14.4 92 0.8 SSE 7 9 4 5 1023.8 1021.7 0.0
30/12:30am 15.9 16.4 14.1 89 1.0 SE 4 6 2 3 1024.0 1021.9 0.0
30/12:00am 16.2 16.5 14.6 90 0.9 ESE 6 9 3 5 1024.0 1021.9 0.0
 
Date/Time
EST
Tmp

°C
App
Tmp
°C
Dew
Point
°C
Rel
Hum
%
Delta-T

°C
Wind Press
QNH
hPa
Press
MSL
hPa
Rain
since
9 am
mm
Dir
 
Spd
km/h
Gust
km/h
Spd
kts
Gust
kts
29/11:30pm 16.3 16.4 14.0 86 1.3 E 6 9 3 5 1024.2 1022.1 0.0
29/11:00pm 16.5 16.1 14.2 86 1.3 E 9 11 5 6 1024.4 1022.4 0.0
29/10:30pm 17.5 18.4 14.0 80 2.0 ESE 2 7 1 4 1024.4 1022.4 0.0
29/10:00pm 18.7 18.9 14.6 77 2.4 E 7 11 4 6 1024.2 1022.1 0.0
29/09:30pm 19.4 19.2 14.6 74 2.8 E 9 15 5 8 1024.2 1022.1 0.0
29/09:00pm 19.5 19.7 14.7 74 2.8 ESE 7 9 4 5 1024.1 1022.0 0.0
29/08:30pm 20.0 21.2 15.0 73 3.0 SE 2 9 1 5 1024.1 1022.0 0.0
29/08:00pm 20.9 20.8 15.0 69 3.5 ENE 9 17 5 9 1023.5 1021.5 0.0
29/07:30pm 21.7 21.8 15.5 68 3.8 ENE 9 15 5 8 1023.4 1021.4 0.0
29/07:00pm 21.9 22.1 15.7 68 3.8 ENE 9 17 5 9 1023.0 1021.0 0.0
29/06:30pm 22.4 22.3 16.0 67 3.9 ENE 11 17 6 9 1022.5 1020.5 0.0
29/06:00pm 23.2 23.0 16.7 67 4.0 ENE 13 20 7 11 1022.3 1020.3 0.0
29/05:30pm 23.3 24.2 17.5 70 3.7 ENE 9 13 5 7 1022.1 1020.0 0.0
29/05:00pm 24.8 24.5 16.5 60 5.2 E 13 20 7 11 1021.6 1019.5 0.0
29/04:30pm 26.2 26.3 15.6 52 6.6 NNE 9 15 5 8 1021.1 1019.1 0.0
29/04:00pm 26.2 25.5 15.3 51 6.7 NE 13 17 7 9 1021.3 1019.2 0.0
29/03:30pm 27.1 26.7 15.1 47 7.4 NNE 11 20 6 11 1021.1 1019.1 0.0
29/03:00pm 27.9 27.5 15.2 46 7.8 ENE 11 17 6 9 1021.4 1019.3 0.0
29/02:30pm 28.5 28.4 16.1 47 7.8 ENE 11 20 6 11 1021.4 1019.3 0.0
29/02:00pm 27.2 26.7 15.9 50 7.0 ENE 13 19 7 10 1021.7 1019.6 0.0
29/01:30pm 26.3 25.8 16.0 53 6.4 ENE 13 24 7 13 1022.0 1019.9 0.0
29/01:00pm 27.3 27.4 15.6 48 7.3 NE 9 15 5 8 1022.4 1020.4 0.0
29/12:30pm 25.1 24.9 15.7 56 5.8 ENE 11 17 6 9 1022.9 1020.9 0.0
29/12:00pm 25.6 25.9 15.9 55 6.0 ENE 9 15 5 8 1023.2 1021.2 0.0
29/11:30am 25.5 25.1 15.2 53 6.3 NE 11 20 6 11 1023.8 1021.7 0.0
29/11:00am 24.8 24.6 15.7 57 5.6 ENE 11 22 6 12 1024.3 1022.3 0.0
29/10:30am 24.5 24.4 16.0 59 5.3 E 11 17 6 9 1024.7 1022.7 0.0
29/10:00am 24.2 24.5 17.0 64 4.5 ESE 11 17 6 9 1024.8 1022.8 0.0
29/09:30am 22.9 22.1 16.0 65 4.2 E 15 24 8 13 1024.8 1022.8 0.0
29/09:00am 22.9 21.4 16.4 67 4.0 E 19 30 10 16 1024.8 1022.8 0.0
29/08:30am 21.9 21.5 16.2 70 3.5 ESE 13 17 7 9 1024.7 1022.7 0.0
29/08:00am 21.4 21.6 16.8 75 2.8 ESE 11 17 6 9 1024.4 1022.4 0.0
29/07:30am 19.9 20.5 16.9 83 1.9 SE 9 13 5 7 1024.0 1021.9 0.0
29/07:00am 17.8 18.4 16.7 93 0.7 S 9 9 5 5 1023.5 1021.5 0.0
29/06:30am 16.9 17.1 15.8 93 0.7 S 9 11 5 6 1023.1 1021.1 0.0
29/06:00am 17.2 19.2 15.9 92 0.8 CALM 0 0 0 0 1022.7 1020.7 0.0
29/05:30am 17.0 18.9 15.7 92 0.8 CALM 0 0 0 0 1022.5 1020.5 0.0
29/05:00am 17.5 18.1 15.7 89 1.1 ESE 7 11 4 6 1021.9 1019.8 0.0
29/04:30am 17.2 17.5 15.9 92 0.8 ESE 9 11 5 6 1021.4 1019.3 0.0
29/04:00am 17.1 17.8 15.6 91 0.9 ESE 6 7 3 4 1021.5 1019.4 0.0
29/03:30am 17.4 18.1 16.1 92 0.8 SSE 7 9 4 5 1021.3 1019.2 0.0
29/03:00am 18.0 19.0 16.3 90 1.0 ESE 6 9 3 5 1021.3 1019.2 0.0
29/02:30am 17.5 18.4 16.2 92 0.8 ESE 6 9 3 5 1021.1 1019.1 0.0
29/02:00am 17.8 18.7 16.5 92 0.8 ESE 7 11 4 6 1021.5 1019.4 0.0
29/01:30am 18.1 20.0 16.6 91 0.9 E 2 9 1 5 1021.8 1019.7 0.0
29/01:00am 18.5 19.6 16.7 89 1.1 SE 6 7 3 4 1022.1 1020.0 0.0
29/12:30am 19.1 20.1 16.9 87 1.4 SE 7 11 4 6 1022.2 1020.1 0.0
29/12:00am 19.8 20.6 17.4 86 1.5 SE 9 13 5 7 1022.3 1020.3 0.0
 
Date/Time
EST
Tmp

°C
App
Tmp
°C
Dew
Point
°C
Rel
Hum
%
Delta-T

°C
Wind Press
QNH
hPa
Press
MSL
hPa
Rain
since
9 am
mm
Dir
 
Spd
km/h
Gust
km/h
Spd
kts
Gust
kts
28/11:30pm 19.6 20.4 17.2 86 1.5 ESE 9 15 5 8 1022.2 1020.1 0.0
28/11:00pm 19.6 20.8 17.4 87 1.4 ESE 7 13 4 7 1022.3 1020.3 0.0
28/10:30pm 19.7 20.5 17.3 86 1.5 SE 9 15 5 8 1022.7 1020.7 0.0
28/10:00pm 19.8 20.5 17.0 84 1.7 ESE 9 13 5 7 1022.7 1020.7 0.0
28/09:30pm 20.4 20.8 17.2 82 2.0 E 11 15 6 8 1022.6 1020.6 0.0
28/09:00pm 20.9 21.8 17.5 81 2.1 ESE 9 13 5 7 1022.6 1020.6 0.0
28/08:30pm 21.1 22.5 17.7 81 2.1 SSE 7 11 4 6 1022.5 1020.5 0.0
28/08:00pm 21.2 22.8 17.8 81 2.1 SE 6 9 3 5 1022.2 1020.1 0.0
28/07:30pm 21.5 22.0 17.5 78 2.5 E 11 17 6 9 1021.6 1019.5 0.0
28/07:00pm 22.1 21.6 17.7 76 2.8 E 17 26 9 14 1020.8 1018.8 0.0
28/06:30pm 22.4 23.1 18.8 80 2.3 E 13 19 7 10 1020.3 1018.3 0.0
28/06:00pm 22.8 22.4 19.0 79 2.4 E 19 26 10 14 1019.9 1017.8 0.0
28/05:30pm 23.2 22.7 18.7 76 2.9 E 19 26 10 14 1019.7 1017.6 0.0
28/05:00pm 23.9 22.5 18.8 73 3.3 E 24 35 13 19 1019.4 1017.3 0.0
28/04:30pm 26.0 25.5 18.7 64 4.7 ENE 19 32 10 17 1018.6 1016.6 0.0
28/04:00pm 28.5 29.2 16.1 47 7.8 ESE 7 11 4 6 1018.4 1016.4 0.0
28/03:30pm 29.4 29.8 16.2 44 8.3 NE 9 19 5 10 1018.4 1016.4 0.0
28/03:00pm 30.0 30.7 15.7 42 9.0 SE 6 9 3 5 1018.5 1016.5 0.0
28/02:30pm 29.7 30.4 16.1 43 8.6 NNW 7 11 4 6 1018.9 1016.8 0.0
28/02:00pm 28.7 29.3 15.9 45 8.0 SSE 7 15 4 8 1019.3 1017.2 0.0
28/01:30pm 29.6 30.6 16.4 45 8.4 SE 6 11 3 6 1019.6 1017.5 0.0
28/01:00pm 28.5 29.1 16.7 48 7.5 SE 9 17 5 9 1020.1 1018.0 0.0
28/12:30pm 29.3 30.6 18.4 51 7.1 SSE 9 19 5 10 1020.6 1018.6 0.0
28/12:00pm 26.8 26.5 17.3 56 6.0 S 15 20 8 11 1021.1 1019.1 0.0
28/11:30am 27.6 28.7 17.2 53 6.6 NNE 7 15 4 8 1021.5 1019.4 0.0
28/11:00am 27.3 28.3 17.8 56 6.1 NE 9 15 5 8 1022.0 1019.9 0.0
28/10:30am 26.1 27.6 17.7 60 5.4 N 6 11 3 6 1022.5 1020.5 0.0

Latest Capital City Observations: Canberra | Sydney | Melbourne | Brisbane | Adelaide | Perth | Hobart | Darwin

Other Formats:

Comma delimited format used in spreadsheet applications
http://www.bom.gov.au/fwo/IDQ60901/IDQ60901.94549.axf

JavaScript Object Notation format (JSON) in row-major order
http://www.bom.gov.au/fwo/IDQ60901/IDQ60901.94549.json